createdAt,value
2022-10-19T00:34:38.154Z,99120.94
2022-10-19T00:36:42.080Z,99119.19
2022-10-19T00:38:45.452Z,99126.09
2022-10-19T00:40:49.201Z,99123.47
2022-10-19T00:42:55.977Z,99132.22
2022-10-19T00:45:08.103Z,99132.81
2022-10-19T00:47:11.618Z,99138.81
2022-10-19T00:49:17.570Z,99131.03
2022-10-19T00:51:22.762Z,99126.63
2022-10-19T00:53:27.043Z,99126.63
2022-10-19T00:55:30.799Z,99115.47
2022-10-19T00:57:34.107Z,99118.22
2022-10-19T00:59:38.044Z,99107.69
2022-10-19T01:01:41.465Z,99115.38
2022-10-19T01:03:44.902Z,99120.84
2022-10-19T01:05:48.917Z,99109.81
2022-10-19T01:07:53.775Z,99110.75
2022-10-19T01:09:57.314Z,99109.00
2022-10-19T01:12:06.889Z,99112.22
2022-10-19T01:14:21.619Z,99116.66
2022-10-19T01:16:30.720Z,99110.44
2022-10-19T01:18:41.375Z,99112.94
2022-10-19T01:21:06.634Z,99113.38
2022-10-19T01:23:32.618Z,99112.19
2022-10-19T01:25:49.970Z,99118.72
2022-10-19T01:28:04.988Z,99113.94
2022-10-19T01:30:13.453Z,99115.41
2022-10-19T01:32:21.401Z,99118.34
2022-10-19T01:34:27.423Z,99106.97
2022-10-19T01:36:37.306Z,99110.09
2022-10-19T01:38:47.461Z,99105.69
2022-10-19T01:40:56.912Z,99098.66
2022-10-19T01:43:04.641Z,99100.72
2022-10-19T01:45:15.200Z,99109.81
2022-10-19T01:47:21.235Z,99104.44
2022-10-19T01:49:28.535Z,99101.59
2022-10-19T01:51:34.911Z,99097.19
2022-10-19T01:53:42.823Z,99094.44
2022-10-19T01:55:46.800Z,99096.97
2022-10-19T01:57:54.497Z,99087.28
2022-10-19T01:59:58.658Z,99084.53
2022-10-19T02:02:04.597Z,99082.94
2022-10-19T02:04:08.403Z,99082.25
2022-10-19T02:06:12.976Z,99078.13
2022-10-19T02:08:20.581Z,99074.78
2022-10-19T02:10:24.247Z,99073.56
2022-10-19T02:12:28.580Z,99072.38
2022-10-19T02:14:35.327Z,99066.31
2022-10-19T02:16:42.935Z,99058.41
2022-10-19T02:18:50.848Z,99051.56
2022-10-19T02:20:54.566Z,99059.00
2022-10-19T02:22:58.235Z,99049.44
2022-10-19T02:25:02.036Z,99046.78
2022-10-19T02:27:06.779Z,99050.50
2022-10-19T02:29:11.359Z,99044.41
2022-10-19T02:31:15.796Z,99051.69
2022-10-19T02:33:20.250Z,99044.84
2022-10-19T02:35:26.234Z,99044.84
2022-10-19T02:37:29.742Z,99044.00
2022-10-19T02:39:33.809Z,99050.44
2022-10-19T02:41:39.596Z,99048.66
2022-10-19T02:43:44.423Z,99041.94
2022-10-19T02:45:53.189Z,99047.53
2022-10-19T02:48:00.011Z,99056.16
2022-10-19T02:50:06.290Z,99048.16
2022-10-19T02:52:12.340Z,99044.81
2022-10-19T02:54:15.675Z,99041.22
2022-10-19T02:56:18.974Z,99029.34
2022-10-19T02:58:22.426Z,99036.53
2022-10-19T03:00:25.710Z,99029.56
2022-10-19T03:02:29.084Z,99027.91
2022-10-19T03:04:32.585Z,99030.56
2022-10-19T03:06:35.898Z,99033.06
2022-10-19T03:08:40.799Z,99027.91
2022-10-19T03:10:44.177Z,99030.44
2022-10-19T03:12:47.707Z,99031.16
2022-10-19T03:14:51.007Z,99035.69
2022-10-19T03:16:54.284Z,99034.00
2022-10-19T03:18:57.744Z,99027.19
2022-10-19T03:21:04.227Z,99030.44
2022-10-19T03:23:07.960Z,99026.84
2022-10-19T03:25:13.031Z,99014.66
2022-10-19T03:27:16.539Z,99019.91
2022-10-19T03:29:19.837Z,99018.22
2022-10-19T03:31:23.226Z,99022.56
2022-10-19T03:33:26.933Z,99024.31
2022-10-19T03:35:47.919Z,99022.78
2022-10-19T03:37:52.120Z,99020.25
2022-10-19T03:39:55.459Z,99035.91
2022-10-19T03:42:00.435Z,99023.09
2022-10-19T03:44:04.008Z,99027.50
2022-10-19T03:46:07.287Z,99022.34
2022-10-19T03:48:10.787Z,99016.38
2022-10-19T03:50:16.990Z,99016.81
2022-10-19T03:52:20.870Z,99011.19
2022-10-19T03:54:27.262Z,99013.06
2022-10-19T03:56:32.392Z,99019.19
2022-10-19T03:58:38.559Z,99014.97
2022-10-19T04:00:41.929Z,99018.31
2022-10-19T04:02:45.351Z,99020.22
2022-10-19T04:04:48.693Z,99020.00
2022-10-19T04:06:53.541Z,99017.28
2022-10-19T04:08:56.971Z,99020.50
2022-10-19T04:11:02.300Z,99021.38
2022-10-19T04:13:05.837Z,99026.50
2022-10-19T04:15:11.637Z,99023.88
2022-10-19T04:17:15.092Z,99025.75
2022-10-19T04:19:18.477Z,99026.53
2022-10-19T04:21:25.830Z,99015.81
2022-10-19T04:23:35.385Z,99008.16
2022-10-19T04:25:39.956Z,99006.38
2022-10-19T04:27:48.253Z,99015.22
2022-10-19T04:30:01.516Z,99010.06
2022-10-19T04:32:08.246Z,99018.44
2022-10-19T04:34:13.009Z,99008.38
2022-10-19T04:36:17.489Z,99004.69
2022-10-19T04:38:22.075Z,99005.75
2022-10-19T04:40:26.657Z,99002.41
2022-10-19T04:42:30.686Z,99004.31
2022-10-19T04:44:34.962Z,99016.47
2022-10-19T04:46:39.116Z,99006.28
2022-10-19T04:48:45.344Z,99017.56
2022-10-19T04:50:50.285Z,99014.81
2022-10-19T04:53:03.581Z,99019.22
2022-10-19T04:55:08.555Z,99014.28
2022-10-19T04:57:12.248Z,99021.13
2022-10-19T04:59:15.545Z,99015.38
2022-10-19T05:01:20.884Z,99016.31
2022-10-19T05:03:24.770Z,99010.66
2022-10-19T05:05:29.607Z,99014.22
2022-10-19T05:07:33.237Z,99027.47
2022-10-19T05:09:37.318Z,99022.41
2022-10-19T05:11:40.502Z,99026.94
2022-10-19T05:13:44.536Z,99028.72
2022-10-19T05:15:57.209Z,99029.91
2022-10-19T05:18:01.137Z,99024.75
2022-10-19T05:20:05.189Z,99027.69
2022-10-19T05:24:42.674Z,99028.13
2022-10-19T05:26:46.222Z,99029.59
2022-10-19T05:28:50.177Z,99029.59
2022-10-19T05:30:53.467Z,99033.78
2022-10-19T05:32:57.040Z,99028.53
2022-10-19T05:35:00.506Z,99033.47
2022-10-19T05:37:04.323Z,99020.97
2022-10-19T05:39:11.803Z,99010.22
2022-10-19T05:41:16.371Z,99007.72
2022-10-19T05:43:20.910Z,99006.25
2022-10-19T05:45:24.558Z,99006.47
2022-10-19T05:47:31.428Z,99008.16
2022-10-19T05:49:36.392Z,99006.69
2022-10-19T05:51:40.357Z,99013.63
2022-10-19T05:53:44.085Z,99018.34
2022-10-19T05:55:48.983Z,99013.94
2022-10-19T05:57:53.288Z,99012.41
2022-10-19T05:59:58.532Z,99013.31
2022-10-19T06:02:01.902Z,99013.94
2022-10-19T06:06:23.494Z,99018.06
2022-10-19T06:08:27.007Z,99021.41
2022-10-19T06:10:31.005Z,99020.69
2022-10-19T06:12:41.480Z,99026.53
2022-10-19T06:18:15.898Z,99039.34
2022-10-19T06:20:19.393Z,99035.69
2022-10-19T06:22:22.554Z,99048.72
2022-10-19T06:24:25.685Z,99046.69
2022-10-19T06:26:29.626Z,99042.72
2022-10-19T06:28:34.364Z,99032.16
2022-10-19T06:30:40.753Z,99033.28
2022-10-19T06:32:44.302Z,99027.94
2022-10-19T06:34:47.592Z,99026.66
2022-10-19T06:36:50.992Z,99028.00
2022-10-19T06:38:54.574Z,99038.69
2022-10-19T06:40:59.756Z,99033.19
2022-10-19T06:43:03.379Z,99027.97
2022-10-19T06:45:09.528Z,99037.47
2022-10-19T06:47:12.915Z,99043.38
2022-10-19T06:49:16.476Z,99041.00
2022-10-19T06:51:20.372Z,99043.50
2022-10-19T06:53:23.762Z,99045.78
2022-10-19T06:55:27.549Z,99050.44
2022-10-19T06:57:31.025Z,99052.59
2022-10-19T06:59:34.415Z,99055.22
2022-10-19T07:01:39.464Z,99056.75
2022-10-19T07:03:43.389Z,99054.66
2022-10-19T07:05:54.382Z,99062.06
2022-10-19T07:07:58.762Z,99057.66
2022-10-19T07:10:02.252Z,99048.78
2022-10-19T07:12:06.570Z,99054.78
2022-10-19T07:14:10.611Z,99056.22
2022-10-19T07:16:19.736Z,99058.63
2022-10-19T07:18:26.657Z,99066.41
2022-10-19T07:20:30.070Z,99056.63
2022-10-19T07:22:36.397Z,99058.38
2022-10-19T07:24:40.028Z,99060.56
2022-10-19T07:26:43.482Z,99055.84
2022-10-19T07:28:48.052Z,99063.75
2022-10-19T07:30:51.420Z,99056.81
2022-10-19T07:32:54.764Z,99053.13
2022-10-19T07:34:59.690Z,99062.31
2022-10-19T07:37:03.324Z,99056.13
2022-10-19T07:39:08.556Z,99063.53
2022-10-19T07:41:14.083Z,99060.69
2022-10-19T07:43:17.736Z,99056.97
2022-10-19T07:45:25.837Z,99059.50
2022-10-19T07:55:50.249Z,99078.28
2022-10-19T07:57:53.527Z,99071.97
2022-10-19T07:59:56.751Z,99072.69
2022-10-19T08:02:02.673Z,99068.84
2022-10-19T08:04:49.079Z,99074.72
2022-10-19T08:06:31.738Z,99075.56
2022-10-19T08:08:35.349Z,99074.72
2022-10-19T08:10:39.690Z,99077.00
2022-10-19T08:12:44.440Z,99084.56
2022-10-19T08:14:48.162Z,99080.69
2022-10-19T08:16:51.583Z,99075.94
2022-10-19T08:18:58.245Z,99080.00
2022-10-19T08:21:03.319Z,99081.56
2022-10-19T08:23:07.438Z,99084.91
2022-10-19T08:25:10.788Z,99081.31
2022-10-19T08:27:14.927Z,99076.75
2022-10-19T08:29:21.085Z,99074.63
2022-10-19T08:31:24.424Z,99071.97
2022-10-19T08:33:27.938Z,99069.09
2022-10-19T08:35:31.826Z,99065.94
2022-10-19T08:37:47.431Z,99067.53
2022-10-19T08:39:51.006Z,99062.63
2022-10-19T08:42:00.024Z,99059.97
2022-10-19T08:44:24.562Z,99058.78
2022-10-19T08:46:33.829Z,99065.38
2022-10-19T08:48:39.350Z,99063.34
2022-10-19T08:50:44.849Z,99070.19
2022-10-19T08:52:52.390Z,99062.97
2022-10-19T08:54:58.889Z,99066.19
2022-10-19T08:57:08.450Z,99064.53
2022-10-19T08:59:15.848Z,99062.59
2022-10-19T09:01:33.831Z,99061.13
2022-10-19T09:03:56.175Z,99068.28
2022-10-19T09:06:08.807Z,99066.72
2022-10-19T09:08:17.558Z,99070.94
2022-10-19T09:10:25.084Z,99059.38
2022-10-19T09:12:43.698Z,99063.34
2022-10-19T09:14:56.230Z,99063.91
2022-10-19T09:17:04.494Z,99065.94
2022-10-19T09:19:26.898Z,99063.16
2022-10-19T09:21:46.008Z,99050.94
2022-10-19T09:23:56.287Z,99056.16
2022-10-19T09:25:59.875Z,99054.69
2022-10-19T09:28:11.393Z,99052.69
2022-10-19T09:30:19.437Z,99054.69
2022-10-19T09:32:27.598Z,99062.09
2022-10-19T09:34:33.697Z,99049.47
2022-10-19T09:36:50.490Z,99050.03
2022-10-19T09:38:54.704Z,99045.66
2022-10-19T09:40:59.410Z,99042.94
2022-10-19T09:43:19.046Z,99045.75
2022-10-19T09:45:33.784Z,99039.50
2022-10-19T09:47:39.902Z,99038.28
2022-10-19T09:49:44.812Z,99041.50
2022-10-19T09:51:51.800Z,99042.06
2022-10-19T09:53:56.140Z,99038.88
2022-10-19T09:56:01.893Z,99041.84
2022-10-19T09:58:07.558Z,99045.06
2022-10-19T10:00:19.564Z,99040.06
2022-10-19T10:02:24.145Z,99050.03
2022-10-19T10:04:30.367Z,99046.19
2022-10-19T10:06:34.523Z,99035.88
2022-10-19T10:08:41.297Z,99030.91
2022-10-19T10:10:46.566Z,99020.28
2022-10-19T10:12:50.476Z,99029.38
2022-10-19T10:14:56.084Z,99029.97
2022-10-19T10:17:04.165Z,99032.94
2022-10-19T10:19:09.528Z,99024.06
2022-10-19T10:21:16.167Z,99029.06
2022-10-19T10:23:25.289Z,99020.50
2022-10-19T10:25:31.277Z,99022.78
2022-10-19T10:27:36.676Z,99017.06
2022-10-19T10:29:40.439Z,99012.75
2022-10-19T10:31:44.043Z,99007.59
2022-10-19T10:33:55.155Z,99013.41
2022-10-19T10:36:03.275Z,99005.50
2022-10-19T10:38:10.426Z,99009.81
2022-10-19T10:40:23.647Z,99011.34
2022-10-19T10:42:30.698Z,98999.50
2022-10-19T10:44:36.525Z,98994.78
2022-10-19T10:46:45.121Z,99001.06
2022-10-19T10:48:53.979Z,98989.53
2022-10-19T10:50:57.723Z,98984.25
2022-10-19T10:53:02.924Z,98983.97
2022-10-19T10:55:19.091Z,98990.41
2022-10-19T10:59:31.098Z,98980.94
2022-10-19T11:01:38.044Z,98971.16
2022-10-19T11:03:50.923Z,98971.16
2022-10-19T11:05:57.031Z,98964.63
2022-10-19T11:08:04.775Z,98964.50
2022-10-19T11:10:18.372Z,98968.25
2022-10-19T11:12:35.165Z,98960.03
2022-10-19T11:14:45.886Z,98952.38
2022-10-19T11:16:52.001Z,98953.47
2022-10-19T11:18:58.974Z,98948.16
2022-10-19T11:21:07.106Z,98955.16
2022-10-19T11:23:15.772Z,98941.78
2022-10-19T11:25:31.267Z,98939.69
2022-10-19T11:27:45.103Z,98940.78
2022-10-19T11:30:00.883Z,98927.81
2022-10-19T11:32:04.844Z,98923.66
2022-10-19T11:34:16.149Z,98929.09
2022-10-19T11:36:31.666Z,98922.13
2022-10-19T11:38:44.636Z,98924.91
2022-10-19T11:43:26.309Z,98923.41
2022-10-19T11:45:38.711Z,98910.16
2022-10-19T11:47:55.458Z,98906.53
2022-10-19T11:50:06.709Z,98904.31
2022-10-19T11:52:14.221Z,98903.91
2022-10-19T11:54:29.614Z,98893.03
2022-10-19T11:56:58.145Z,98893.31
2022-10-19T11:59:06.617Z,98881.16
2022-10-19T12:01:17.070Z,98883.97
2022-10-19T12:03:36.561Z,98872.25
2022-10-19T12:05:47.492Z,98881.16
2022-10-19T12:08:00.169Z,98869.72
2022-10-19T12:10:09.785Z,98864.69
2022-10-19T12:12:25.928Z,98866.09
2022-10-19T12:14:32.910Z,98862.44
2022-10-19T12:16:39.353Z,98855.75
2022-10-19T12:18:45.104Z,98846.56
2022-10-19T12:20:51.368Z,98844.06
2022-10-19T12:22:57.439Z,98844.91
2022-10-19T12:25:02.227Z,98843.09
2022-10-19T12:27:06.308Z,98837.88
2022-10-19T12:29:15.927Z,98840.09
2022-10-19T12:31:19.520Z,98831.72
2022-10-19T12:33:30.251Z,98836.88
2022-10-19T12:35:46.911Z,98842.84
2022-10-19T12:37:55.845Z,98836.88
2022-10-19T12:40:04.106Z,98833.94
2022-10-19T12:42:13.046Z,98834.78
2022-10-19T12:44:41.056Z,98836.72
2022-10-19T12:46:53.793Z,98831.72
2022-10-19T12:49:34.898Z,98832.31
2022-10-19T12:51:46.474Z,98822.84
2022-10-19T12:53:50.432Z,98833.97
2022-10-19T12:56:01.393Z,98826.47
2022-10-19T12:58:07.361Z,98818.00
2022-10-19T13:00:23.947Z,98815.78
2022-10-19T13:02:29.983Z,98816.44
2022-10-19T13:04:40.542Z,98812.97
2022-10-19T13:06:46.217Z,98811.16
2022-10-19T13:08:56.912Z,98806.00
2022-10-19T13:11:14.982Z,98803.09
2022-10-19T13:13:53.541Z,98800.03
2022-10-19T13:16:00.875Z,98798.66
2022-10-19T13:18:04.828Z,98792.09
2022-10-19T13:20:44.933Z,98796.56
2022-10-19T13:22:50.178Z,98791.69
2022-10-19T13:25:23.836Z,98793.53
2022-10-19T13:27:39.072Z,98789.50
2022-10-19T13:29:44.939Z,98783.09
2022-10-19T13:31:49.801Z,98785.88
2022-10-19T13:33:55.376Z,98777.66
2022-10-19T13:36:07.928Z,98775.69
2022-10-19T13:38:24.310Z,98777.34
2022-10-19T13:40:28.221Z,98775.53
2022-10-19T13:42:31.850Z,98776.94
2022-10-19T13:44:36.609Z,98764.22
2022-10-19T13:46:53.182Z,98765.03
2022-10-19T13:49:38.436Z,98768.25
2022-10-19T13:51:51.929Z,98771.72
2022-10-19T13:53:58.828Z,98771.34
2022-10-19T13:59:12.947Z,98769.38
2022-10-19T14:01:26.919Z,98768.41
2022-10-19T14:03:42.000Z,98760.75
2022-10-19T14:06:15.102Z,98763.41
2022-10-19T14:08:32.417Z,98752.25
2022-10-19T14:10:56.139Z,98743.47
2022-10-19T14:12:59.919Z,98747.66
2022-10-19T14:15:13.657Z,98744.19
2022-10-19T14:19:30.995Z,98752.53
2022-10-19T14:21:38.075Z,98740.97
2022-10-19T14:23:42.064Z,98740.00
2022-10-19T14:25:51.679Z,98739.44
2022-10-19T14:28:00.470Z,98735.56
2022-10-19T14:30:05.499Z,98735.00
2022-10-19T14:32:10.724Z,98732.50
2022-10-19T14:34:16.376Z,98721.91
2022-10-19T14:36:24.129Z,98715.66
2022-10-19T14:38:31.681Z,98711.31
2022-10-19T14:40:37.244Z,98708.53
2022-10-19T14:42:43.347Z,98704.63
2022-10-19T14:44:49.427Z,98705.31
2022-10-19T14:46:52.912Z,98699.03
2022-10-19T14:49:01.074Z,98711.16
2022-10-19T14:51:05.920Z,98709.78
2022-10-19T14:53:22.266Z,98708.38
2022-10-19T14:55:40.826Z,98713.69
2022-10-19T14:57:45.692Z,98712.34
2022-10-19T14:59:52.571Z,98710.50
2022-10-19T15:01:58.097Z,98701.88
2022-10-19T15:04:03.102Z,98699.25
2022-10-19T15:06:08.632Z,98698.25
2022-10-19T15:08:18.475Z,98694.09
2022-10-19T15:10:23.211Z,98698.66
2022-10-19T15:12:29.984Z,98685.34
2022-10-19T15:14:33.503Z,98688.56
2022-10-19T15:16:45.269Z,98679.56
2022-10-19T15:18:50.231Z,98679.97
2022-10-19T15:21:12.082Z,98677.91
2022-10-19T15:23:34.281Z,98677.34
2022-10-19T15:25:38.222Z,98675.13
2022-10-19T15:27:45.466Z,98679.88
2022-10-19T15:29:56.173Z,98674.06
2022-10-19T15:32:14.217Z,98673.22
2022-10-19T15:34:24.437Z,98683.09
2022-10-19T15:36:29.632Z,98678.34
2022-10-19T15:38:34.829Z,98672.22
2022-10-19T15:40:42.239Z,98669.03
2022-10-19T15:42:47.324Z,98670.16
2022-10-19T15:44:53.803Z,98670.72
2022-10-19T15:47:19.469Z,98675.47
2022-10-19T15:49:53.672Z,98673.78
2022-10-19T15:51:56.824Z,98684.63
2022-10-19T15:54:02.996Z,98682.28
2022-10-19T15:56:06.913Z,98677.13
2022-10-19T15:58:10.923Z,98669.34
2022-10-19T16:04:25.624Z,98664.75
2022-10-19T16:10:29.481Z,98637.09
2022-10-19T16:12:33.992Z,98640.97
2022-10-19T16:14:37.252Z,98645.72
2022-10-19T16:16:40.497Z,98649.63
2022-10-19T16:18:43.730Z,98650.72
2022-10-19T16:20:47.470Z,98654.59
2022-10-19T16:22:51.310Z,98651.13
2022-10-19T16:24:54.672Z,98647.09
2022-10-19T16:26:59.213Z,98635.16
2022-10-19T16:29:02.749Z,98639.13
2022-10-19T16:31:06.249Z,98631.06
2022-10-19T16:33:09.506Z,98640.38
2022-10-19T16:35:12.750Z,98635.34
2022-10-19T16:37:15.916Z,98647.59
2022-10-19T16:39:19.448Z,98646.31
2022-10-19T16:41:22.722Z,98653.00
2022-10-19T16:43:27.307Z,98659.50
2022-10-19T16:45:31.052Z,98665.34
2022-10-19T16:47:34.227Z,98660.34
2022-10-19T16:49:38.172Z,98668.25
2022-10-19T16:51:42.018Z,98666.59
2022-10-19T16:53:45.206Z,98666.75
2022-10-19T16:55:48.451Z,98665.19
2022-10-19T16:57:52.714Z,98665.47
2022-10-19T16:59:57.351Z,98667.09
2022-10-19T17:02:00.792Z,98674.44
2022-10-19T17:09:52.267Z,98677.06
2022-10-19T17:11:55.802Z,98680.09
2022-10-19T17:14:00.356Z,98677.72
2022-10-19T17:16:06.796Z,98680.63
2022-10-19T17:18:09.873Z,98675.75
2022-10-19T17:20:13.815Z,98675.72
2022-10-19T17:22:17.130Z,98671.19
2022-10-19T17:24:22.224Z,98661.16
2022-10-19T17:26:30.127Z,98659.06
2022-10-19T17:28:33.482Z,98663.88
2022-10-19T17:30:41.829Z,98666.53
2022-10-19T17:32:46.249Z,98663.28
2022-10-19T17:34:49.528Z,98660.78
2022-10-19T17:36:52.562Z,98665.22
2022-10-19T17:38:56.031Z,98669.69
2022-10-19T17:41:03.231Z,98670.63
2022-10-19T17:43:06.613Z,98669.94
2022-10-19T17:45:10.608Z,98678.09
2022-10-19T17:47:13.698Z,98676.53
2022-10-19T17:49:18.796Z,98678.75
2022-10-19T17:51:25.077Z,98664.13
2022-10-19T17:53:28.834Z,98665.50
2022-10-19T17:55:33.002Z,98667.09
2022-10-19T17:57:36.630Z,98666.53
2022-10-19T17:59:52.021Z,98666.66
2022-10-19T18:01:56.188Z,98666.19
2022-10-19T18:03:59.329Z,98660.84
2022-10-19T18:06:09.655Z,98654.81
2022-10-19T18:08:13.951Z,98657.81
2022-10-19T18:10:17.010Z,98662.72
2022-10-19T18:12:20.143Z,98675.28
2022-10-19T18:14:23.197Z,98668.47
2022-10-19T18:16:28.210Z,98663.31
2022-10-19T18:18:32.266Z,98679.25
2022-10-19T18:20:35.257Z,98671.34
2022-10-19T18:22:39.850Z,98676.41
2022-10-19T18:24:42.871Z,98680.72
2022-10-19T18:26:45.937Z,98671.97
2022-10-19T18:28:49.871Z,98680.84
2022-10-19T18:30:52.924Z,98682.50
2022-10-19T18:32:56.001Z,98679.16
2022-10-19T18:34:59.135Z,98686.22
2022-10-19T18:37:02.235Z,98683.09
2022-10-19T18:39:07.553Z,98685.75
2022-10-19T18:43:15.235Z,98676.56
2022-10-19T18:45:18.437Z,98675.63
2022-10-19T18:47:21.459Z,98673.94
2022-10-19T18:49:25.019Z,98677.50
2022-10-19T18:51:28.588Z,98666.28
2022-10-19T18:53:31.903Z,98670.84
2022-10-19T18:55:36.390Z,98661.50
2022-10-19T18:57:39.719Z,98656.50
2022-10-19T18:59:42.742Z,98665.34
2022-10-19T19:01:45.848Z,98648.16
2022-10-19T19:03:50.432Z,98647.78
2022-10-19T19:05:53.454Z,98653.41
2022-10-19T19:07:56.523Z,98642.31
2022-10-19T19:09:59.652Z,98634.41
2022-10-19T19:12:03.994Z,98641.72
2022-10-19T19:14:09.233Z,98643.03
2022-10-19T19:16:12.296Z,98638.38
2022-10-19T19:18:15.464Z,98632.41
2022-10-19T19:20:18.936Z,98638.41
2022-10-19T19:22:25.798Z,98635.88
2022-10-19T19:24:31.585Z,98634.31
2022-10-19T19:26:37.150Z,98635.31
2022-10-19T19:28:43.497Z,98629.31
2022-10-19T19:30:48.510Z,98632.06
2022-10-19T19:32:51.481Z,98631.59
2022-10-19T19:34:55.005Z,98639.59
2022-10-19T19:36:58.166Z,98639.59
2022-10-19T19:39:01.270Z,98646.66
2022-10-19T19:41:04.998Z,98640.69
2022-10-19T19:43:08.080Z,98639.00
2022-10-19T19:45:12.635Z,98638.88
2022-10-19T19:47:16.303Z,98634.66
2022-10-19T19:49:20.844Z,98625.88
2022-10-19T19:51:23.827Z,98632.16
2022-10-19T19:53:27.084Z,98619.13
2022-10-19T19:55:33.081Z,98628.81
2022-10-19T19:57:38.543Z,98625.38
2022-10-19T19:59:41.631Z,98622.47
2022-10-19T20:01:46.172Z,98638.00
2022-10-19T20:03:49.505Z,98618.91
2022-10-19T20:05:52.597Z,98627.59
2022-10-19T20:07:55.696Z,98636.22
2022-10-19T20:09:59.266Z,98620.69
2022-10-19T20:12:02.434Z,98622.59
2022-10-19T20:14:05.472Z,98618.66
2022-10-19T20:16:10.088Z,98612.09
2022-10-19T20:18:14.797Z,98615.66
2022-10-19T20:20:18.980Z,98611.38
2022-10-19T20:22:24.140Z,98609.00
2022-10-19T20:24:27.355Z,98610.63
2022-10-19T20:26:30.794Z,98606.84
2022-10-19T20:28:34.637Z,98601.56
2022-10-19T20:30:37.871Z,98598.84
2022-10-19T20:32:40.940Z,98597.16
2022-10-19T20:34:45.525Z,98597.16
2022-10-19T20:36:48.521Z,98586.19
2022-10-19T20:38:53.066Z,98594.16
2022-10-19T20:40:56.915Z,98589.97
2022-10-19T20:42:59.945Z,98594.63
2022-10-19T20:45:02.972Z,98600.00
2022-10-19T20:47:06.379Z,98593.19
2022-10-19T20:49:12.493Z,98593.31
2022-10-19T20:51:18.563Z,98595.94
2022-10-19T20:53:21.638Z,98584.72
2022-10-19T20:55:24.851Z,98581.63
2022-10-19T20:57:27.910Z,98587.59
2022-10-19T20:59:32.822Z,98577.31
2022-10-19T21:01:37.025Z,98587.09
2022-10-19T21:03:40.720Z,98579.34
2022-10-19T21:05:43.749Z,98578.72
2022-10-19T21:07:48.145Z,98578.72
2022-10-19T21:09:51.289Z,98573.94
2022-10-19T21:11:54.388Z,98575.63
2022-10-19T21:13:58.898Z,98571.19
2022-10-19T21:16:09.160Z,98576.56
2022-10-19T21:18:12.139Z,98572.41
2022-10-19T21:20:15.366Z,98574.78
2022-10-19T21:22:18.381Z,98574.09
2022-10-19T21:24:25.445Z,98571.47
2022-10-19T21:26:29.613Z,98577.66
2022-10-19T21:28:32.597Z,98578.34
2022-10-19T21:30:37.737Z,98582.78
2022-10-19T21:32:40.718Z,98582.78
2022-10-19T21:34:43.735Z,98585.41
2022-10-19T21:36:46.769Z,98584.59
2022-10-19T21:38:49.827Z,98585.53
2022-10-19T21:40:57.966Z,98590.66
2022-10-19T21:43:00.925Z,98580.50
2022-10-19T21:45:25.286Z,98582.91
2022-10-19T21:47:26.871Z,98572.28
2022-10-19T21:49:29.957Z,98579.50
2022-10-19T21:51:36.111Z,98577.88
2022-10-19T21:53:39.064Z,98573.56
2022-10-19T21:55:42.418Z,98575.69
2022-10-19T21:57:46.701Z,98578.56
2022-10-19T21:59:49.699Z,98573.19
2022-10-19T22:01:54.527Z,98579.38
2022-10-19T22:03:58.598Z,98573.31
2022-10-19T22:06:02.519Z,98569.13
2022-10-19T22:08:05.787Z,98567.31
2022-10-19T22:10:09.506Z,98568.28
2022-10-19T22:14:21.909Z,98553.59
2022-10-19T22:16:26.052Z,98546.78
2022-10-19T22:18:29.004Z,98545.38
2022-10-19T22:20:31.969Z,98551.88
2022-10-19T22:22:35.160Z,98538.75
2022-10-19T22:24:38.356Z,98536.00
2022-10-19T22:26:43.141Z,98538.63
2022-10-19T22:28:46.440Z,98545.06
2022-10-19T22:30:55.214Z,98538.16
2022-10-19T22:32:58.180Z,98546.84
2022-10-19T22:35:01.181Z,98539.31
2022-10-19T22:37:04.154Z,98546.25
2022-10-19T22:39:07.375Z,98545.41
2022-10-19T22:41:10.428Z,98540.16
2022-10-19T22:43:13.427Z,98527.28
2022-10-19T22:45:16.555Z,98535.03
2022-10-19T22:47:20.881Z,98542.91
2022-10-19T22:49:25.119Z,98543.03
2022-10-19T22:51:28.214Z,98538.59
2022-10-19T22:53:31.167Z,98527.53
2022-10-19T22:55:34.936Z,98528.34
2022-10-19T22:57:38.785Z,98530.03
2022-10-19T22:59:41.784Z,98525.25
2022-10-19T23:01:44.925Z,98523.69
2022-10-19T23:03:49.320Z,98516.81
2022-10-19T23:05:52.280Z,98525.50
2022-10-19T23:07:55.166Z,98510.94
2022-10-19T23:09:58.146Z,98512.84
2022-10-19T23:12:01.268Z,98514.63
2022-10-19T23:14:04.369Z,98513.66
2022-10-19T23:16:08.109Z,98515.47
2022-10-19T23:18:11.314Z,98525.13
2022-10-19T23:20:15.947Z,98524.25
2022-10-19T23:22:19.008Z,98526.88
2022-10-19T23:24:22.189Z,98521.66
2022-10-19T23:26:25.445Z,98517.47
2022-10-19T23:28:28.523Z,98505.44
2022-10-19T23:30:31.589Z,98503.03
2022-10-19T23:32:34.555Z,98509.31
2022-10-19T23:34:37.507Z,98506.81
2022-10-19T23:36:41.853Z,98507.69
2022-10-19T23:38:45.776Z,98506.00
2022-10-19T23:40:48.732Z,98503.72
2022-10-19T23:42:51.755Z,98501.31
2022-10-19T23:44:54.719Z,98503.94
2022-10-19T23:46:57.719Z,98495.13
2022-10-19T23:49:00.689Z,98496.06
2022-10-19T23:51:05.294Z,98489.28
2022-10-19T23:53:09.640Z,98487.00
2022-10-19T23:55:12.550Z,98480.53
2022-10-19T23:57:15.810Z,98480.53
2022-10-19T23:59:18.835Z,98479.09
